Time;durP1;ratioP1;P1;durP2;ratioP2;P2;SDS_P1;SDS_P2;PMS_P1;PMS_P2;Temp;Humidity;BMP_temperature;BMP_pressure;BME280_temperature;BME280_humidity;BME280_pressure;Samples;Min_cycle;Max_cycle;Signal;HPM_P1;HPM_P2
2021/01/16 00:00:16;;;;;;;26.60;13.07;;;-9.40;79.40;;;;;;4993623;28;20027;-88
2021/01/16 00:02:42;;;;;;;24.77;12.27;;;-9.50;80.30;;;;;;4995130;28;20029;-88
2021/01/16 00:05:09;;;;;;;32.83;13.88;;;-9.40;80.50;;;;;;4993305;28;20026;-88
2021/01/16 00:07:34;;;;;;;26.52;11.52;;;-9.50;81.20;;;;;;5011232;28;20526;-88
2021/01/16 00:10:00;;;;;;;24.15;10.65;;;-9.50;80.90;;;;;;4993332;28;20053;-88
2021/01/16 00:12:26;;;;;;;21.23;9.98;;;-9.50;80.30;;;;;;4993856;28;20457;-88
2021/01/16 00:14:52;;;;;;;24.63;10.45;;;-9.40;80.10;;;;;;4996658;28;20033;-88
2021/01/16 00:17:17;;;;;;;24.55;10.15;;;-9.40;80.00;;;;;;4993704;28;20037;-88
2021/01/16 00:19:43;;;;;;;22.50;10.20;;;-9.30;79.80;;;;;;4995600;28;20026;-88
2021/01/16 00:22:09;;;;;;;25.60;11.65;;;-9.30;79.60;;;;;;4993762;28;20026;-88
2021/01/16 00:24:35;;;;;;;28.05;12.65;;;-9.30;79.50;;;;;;4994471;28;20026;-88
2021/01/16 00:27:00;;;;;;;31.80;13.35;;;-9.40;79.40;;;;;;4993732;28;20031;-87
2021/01/16 00:29:26;;;;;;;31.27;12.35;;;-9.30;79.40;;;;;;4993715;28;20034;-87
2021/01/16 00:31:52;;;;;;;29.77;13.30;;;-9.30;79.40;;;;;;4996660;28;20030;-87
2021/01/16 00:34:18;;;;;;;30.15;12.70;;;-9.30;79.50;;;;;;4993674;28;20118;-88
2021/01/16 00:36:43;;;;;;;35.63;13.60;;;-9.40;79.50;;;;;;4995182;28;20432;-87
2021/01/16 00:39:09;;;;;;;35.55;15.00;;;-9.40;79.30;;;;;;4993801;28;20034;-88
2021/01/16 00:41:35;;;;;;;37.72;14.77;;;-9.40;79.50;;;;;;4994254;28;20022;-88
2021/01/16 00:44:01;;;;;;;32.53;13.63;;;-9.40;79.30;;;;;;5014369;28;20475;-87
2021/01/16 00:46:27;;;;;;;30.88;13.18;;;-9.40;79.30;;;;;;4996417;28;20023;-87
2021/01/16 00:48:52;;;;;;;34.35;14.57;;;-9.40;79.50;;;;;;4996632;28;20110;-88
2021/01/16 00:51:18;;;;;;;32.13;13.98;;;-9.50;79.60;;;;;;4993441;28;20029;-87
2021/01/16 00:53:44;;;;;;;39.97;15.48;;;-9.50;79.90;;;;;;5012590;28;20049;-88
2021/01/16 00:56:09;;;;;;;33.95;13.82;;;-9.50;79.60;;;;;;4993594;28;20026;-88
2021/01/16 00:58:35;;;;;;;33.70;14.30;;;-9.20;80.20;;;;;;4995956;28;20361;-87
2021/01/16 01:01:01;;;;;;;37.40;15.90;;;-9.40;80.20;;;;;;4997141;28;20027;-88
2021/01/16 01:03:27;;;;;;;37.78;14.52;;;-9.40;80.10;;;;;;5013770;28;20026;-88
2021/01/16 01:05:56;;;;;;;35.22;14.90;;;-9.40;80.20;;;;;;5000040;28;20029;-88
2021/01/16 01:08:26;;;;;;;32.28;13.50;;;-9.40;80.50;;;;;;4996960;28;20527;-87
2021/01/16 01:10:52;;;;;;;39.25;14.43;;;-9.40;80.40;;;;;;4999536;28;20068;-88
2021/01/16 01:13:18;;;;;;;37.40;14.90;;;-9.40;80.40;;;;;;4996340;28;20026;-87
2021/01/16 01:15:44;;;;;;;28.63;13.98;;;-9.40;81.30;;;;;;4998460;28;20093;-87
2021/01/16 01:18:10;;;;;;;37.97;15.15;;;-9.40;81.30;;;;;;4996608;28;20031;-87
2021/01/16 01:20:36;;;;;;;28.25;13.70;;;-9.40;81.50;;;;;;4996966;28;20030;-87
2021/01/16 01:23:03;;;;;;;30.13;13.52;;;;;;;;;;5016916;28;20076;-88
2021/01/16 01:25:29;;;;;;;25.23;11.10;;;-9.30;81.40;;;;;;4999498;28;20125;-87
2021/01/16 01:27:58;;;;;;;33.00;14.50;;;-9.30;81.70;;;;;;4991651;28;20057;-88
2021/01/16 01:30:27;;;;;;;29.05;12.20;;;-9.20;81.70;;;;;;4999201;28;20037;-88
2021/01/16 01:32:54;;;;;;;27.75;11.98;;;-9.20;81.70;;;;;;4999603;28;20048;-88
2021/01/16 01:35:20;;;;;;;27.33;11.95;;;-9.20;81.60;;;;;;4999166;28;20061;-87
2021/01/16 01:37:50;;;;;;;30.40;12.48;;;-9.10;81.50;;;;;;4999231;28;20057;-88
2021/01/16 01:40:17;;;;;;;27.23;13.60;;;-9.10;81.10;;;;;;4995833;28;20037;-88
2021/01/16 01:42:47;;;;;;;36.80;15.35;;;-9.00;80.80;;;;;;4997767;28;20060;-88
2021/01/16 01:45:12;;;;;;;41.08;15.80;;;-9.00;80.70;;;;;;4995956;28;20026;-87
2021/01/16 01:47:40;;;;;;;41.17;15.75;;;-9.00;80.60;;;;;;4996877;28;20381;-88
2021/01/16 01:50:09;;;;;;;32.38;13.60;;;-9.00;80.60;;;;;;4996219;28;20053;-87
2021/01/16 01:52:35;;;;;;;32.17;12.63;;;-8.90;80.80;;;;;;4996473;28;20022;-88
2021/01/16 01:55:03;;;;;;;26.45;12.35;;;-8.90;80.60;;;;;;4995807;28;20092;-88
2021/01/16 01:57:33;;;;;;;30.70;12.52;;;-8.90;80.50;;;;;;5012774;28;20160;-87
2021/01/16 02:00:00;;;;;;;31.45;13.05;;;-8.90;80.20;;;;;;4998703;28;20051;-87
2021/01/16 02:02:27;;;;;;;24.83;11.93;;;-8.90;79.70;;;;;;4998754;28;20026;-87
2021/01/16 02:04:55;;;;;;;26.95;12.77;;;-8.90;79.80;;;;;;4998338;28;20048;-87
2021/01/16 02:07:22;;;;;;;28.20;13.10;;;-8.90;79.90;;;;;;4995592;28;20161;-88
2021/01/16 02:09:49;;;;;;;30.25;13.85;;;-8.80;79.70;;;;;;4997257;28;20078;-87
2021/01/16 02:12:15;;;;;;;32.13;13.43;;;-7.40;80.30;;;;;;4996151;28;20053;-88
2021/01/16 02:14:45;;;;;;;32.97;14.95;;;-8.90;79.30;;;;;;4997428;28;20473;-88
2021/01/16 02:17:17;;;;;;;35.85;14.48;;;-8.80;79.40;;;;;;4995505;28;20022;-87
2021/01/16 02:20:02;;;;;;;30.20;13.52;;;-8.80;79.60;;;;;;4997513;28;20468;-87
2021/01/16 02:22:31;;;;;;;25.77;11.25;;;-8.90;79.40;;;;;;5016053;28;20101;-88
2021/01/16 02:25:17;;;;;;;28.02;13.20;;;-8.80;79.60;;;;;;5000057;28;20050;-87
2021/01/16 02:27:43;;;;;;;26.25;13.27;;;-8.80;79.40;;;;;;4999739;28;20109;-88
2021/01/16 02:30:09;;;;;;;26.17;10.98;;;-8.90;78.90;;;;;;4995559;28;20054;-87
2021/01/16 02:32:37;;;;;;;25.02;11.27;;;-8.90;79.40;;;;;;5013487;28;20025;-87
2021/01/16 02:35:05;;;;;;;23.27;11.15;;;-8.80;79.50;;;;;;4995660;28;20030;-88
2021/01/16 02:37:48;;;;;;;28.98;12.18;;;-8.80;79.70;;;;;;4995514;28;20472;-87
2021/01/16 02:40:31;;;;;;;25.90;11.60;;;-8.90;79.00;;;;;;4995366;28;20031;-88
2021/01/16 02:43:15;;;;;;;28.98;11.52;;;-8.80;79.50;;;;;;4995297;28;20455;-87
2021/01/16 02:45:50;;;;;;;25.13;11.02;;;-8.90;79.20;;;;;;4996563;28;20018;-87
2021/01/16 02:48:23;;;;;;;22.50;10.40;;;-8.80;79.40;;;;;;4994979;28;20022;-87
2021/01/16 02:50:54;;;;;;;22.02;11.00;;;-8.80;79.60;;;;;;4997567;28;20089;-87
2021/01/16 02:53:24;;;;;;;21.63;10.05;;;-8.70;79.60;;;;;;4994935;28;20029;-87
2021/01/16 02:55:51;;;;;;;19.33;9.75;;;-8.70;79.40;;;;;;5014860;28;20030;-88
2021/01/16 02:58:20;;;;;;;22.35;10.63;;;-8.70;79.40;;;;;;4994979;28;20424;-88
2021/01/16 03:00:46;;;;;;;23.10;11.57;;;-8.70;79.30;;;;;;4996804;28;20026;-87
2021/01/16 03:03:12;;;;;;;24.17;10.55;;;-8.80;77.90;;;;;;4994681;28;20026;-88
2021/01/16 03:05:38;;;;;;;25.23;11.30;;;-8.70;79.10;;;;;;4995364;28;20046;-88
2021/01/16 03:08:06;;;;;;;23.73;10.68;;;-8.70;79.00;;;;;;4994887;28;20042;-88
2021/01/16 03:10:34;;;;;;;21.55;10.02;;;-8.70;78.30;;;;;;4994580;28;20054;-88
2021/01/16 03:13:00;;;;;;;22.95;10.30;;;-8.70;79.10;;;;;;4994096;28;20034;-87
2021/01/16 03:15:27;;;;;;;25.35;10.40;;;-8.70;79.10;;;;;;5009786;28;20030;-88
2021/01/16 03:17:55;;;;;;;28.13;11.45;;;-8.60;79.10;;;;;;4996850;28;20080;-87
2021/01/16 03:20:22;;;;;;;24.30;10.90;;;-8.60;78.80;;;;;;4992707;28;20026;-87
2021/01/16 03:22:53;;;;;;;26.77;12.90;;;-8.60;79.10;;;;;;4995188;28;20030;-88
2021/01/16 03:25:24;;;;;;;23.15;11.15;;;-8.70;78.40;;;;;;4993272;28;20018;-88
2021/01/16 03:27:51;;;;;;;26.70;11.85;;;-9.90;78.40;;;;;;4996016;28;20117;-87
2021/01/16 03:30:17;;;;;;;27.45;11.88;;;-8.60;79.20;;;;;;5002457;28;20038;-88
2021/01/16 03:32:45;;;;;;;28.73;12.68;;;-8.60;78.90;;;;;;4995281;28;20061;-88
2021/01/16 03:35:13;;;;;;;33.58;13.95;;;-8.60;78.70;;;;;;5014114;28;20061;-87
2021/01/16 03:37:39;;;;;;;44.33;17.13;;;-8.60;78.90;;;;;;4994652;28;20042;-87
2021/01/16 03:40:07;;;;;;;36.75;14.50;;;-8.70;78.90;;;;;;4993618;28;20026;-88
2021/01/16 03:42:36;;;;;;;64.65;25.00;;;-8.60;79.10;;;;;;4993728;28;20464;-88
2021/01/16 03:45:07;;;;;;;61.83;22.40;;;-8.70;78.60;;;;;;5014346;28;20065;-87
2021/01/16 03:47:34;;;;;;;53.70;20.17;;;-8.60;79.20;;;;;;4993287;28;20019;-87
2021/01/16 03:50:00;;;;;;;45.75;17.77;;;-8.60;79.40;;;;;;4993494;28;20121;-88
2021/01/16 03:52:37;;;;;;;46.78;17.23;;;-8.60;79.40;;;;;;4992976;28;20118;-87
2021/01/16 03:55:07;;;;;;;41.60;17.05;;;-8.40;79.70;;;;;;4993243;28;20026;-87
2021/01/16 03:57:33;;;;;;;45.30;18.05;;;-8.40;79.60;;;;;;4993777;28;20072;-88
2021/01/16 03:59:59;;;;;;;52.05;21.08;;;-8.30;79.60;;;;;;4992658;28;20034;-87
2021/01/16 04:02:25;;;;;;;55.20;18.70;;;-8.30;79.50;;;;;;4993346;28;20081;-88
2021/01/16 04:04:51;;;;;;;50.83;19.13;;;-8.30;79.70;;;;;;4996674;28;20026;-87
2021/01/16 04:07:17;;;;;;;42.05;17.67;;;-8.20;79.60;;;;;;5014704;28;20025;-86
2021/01/16 04:09:44;;;;;;;33.75;14.70;;;-8.20;79.60;;;;;;4995091;28;20050;-87
2021/01/16 04:12:11;;;;;;;28.60;12.75;;;-8.10;79.50;;;;;;5012959;28;20033;-88
2021/01/16 04:14:37;;;;;;;30.17;12.68;;;-8.10;79.30;;;;;;5011626;28;20034;-87
2021/01/16 04:17:10;;;;;;;25.08;11.77;;;-8.10;79.20;;;;;;4991103;28;20034;-87
2021/01/16 04:19:37;;;;;;;24.88;11.90;;;-8.10;78.90;;;;;;4991350;28;20060;-87
2021/01/16 04:22:03;;;;;;;27.88;12.60;;;-7.80;78.90;;;;;;4985921;28;20019;-87
2021/01/16 04:24:29;;;;;;;21.05;10.85;;;-8.10;78.60;;;;;;4983175;28;20022;-90
2021/01/16 04:26:56;;;;;;;22.02;11.15;;;-8.00;78.80;;;;;;4986472;28;20038;-86
2021/01/16 04:29:21;;;;;;;27.25;12.25;;;-8.10;78.80;;;;;;4996176;28;20089;-88
2021/01/16 04:31:48;;;;;;;28.38;13.48;;;-8.10;78.80;;;;;;5013974;28;20108;-95
2021/01/16 04:34:14;;;;;;;28.63;13.77;;;-8.10;78.90;;;;;;4997320;28;20026;-82
2021/01/16 04:36:40;;;;;;;28.83;13.77;;;-8.10;79.30;;;;;;4980761;28;20053;-81
2021/01/16 04:39:06;;;;;;;26.95;11.68;;;-8.10;79.10;;;;;;4996418;28;20472;-82
2021/01/16 04:41:35;;;;;;;31.58;14.23;;;-8.10;79.10;;;;;;4997057;28;20050;-82
2021/01/16 04:44:01;;;;;;;29.25;15.15;;;-8.10;79.30;;;;;;4995946;28;20026;-82
2021/01/16 04:46:27;;;;;;;31.35;15.00;;;-8.00;79.40;;;;;;4980247;28;20029;-81
2021/01/16 04:49:06;;;;;;;32.80;15.85;;;-8.00;79.50;;;;;;4999486;28;20072;-81
2021/01/16 04:51:36;;;;;;;45.78;18.65;;;-8.00;79.40;;;;;;4996721;28;20105;-82
2021/01/16 04:54:04;;;;;;;50.33;18.05;;;-7.90;79.40;;;;;;4980355;28;20037;-81
2021/01/16 04:56:34;;;;;;;31.95;14.77;;;-8.00;79.30;;;;;;4996299;28;20038;-82
2021/01/16 04:59:00;;;;;;;36.58;15.70;;;-8.00;80.00;;;;;;4996299;28;20027;-82
2021/01/16 05:01:27;;;;;;;35.03;15.70;;;-8.00;80.10;;;;;;4996252;28;20429;-82
2021/01/16 05:03:55;;;;;;;36.58;15.43;;;-8.10;80.00;;;;;;4998847;28;20369;-82
2021/01/16 05:06:25;;;;;;;35.60;15.60;;;-8.10;80.70;;;;;;4979469;28;20160;-82
2021/01/16 05:08:55;;;;;;;30.95;14.65;;;-8.00;80.60;;;;;;4982881;28;20033;-83
2021/01/16 05:11:48;;;;;;;33.65;15.77;;;-8.00;80.40;;;;;;4995086;28;20531;-82
2021/01/16 05:14:16;;;;;;;27.75;14.07;;;-7.90;80.30;;;;;;4995108;28;20031;-82
2021/01/16 05:16:56;;;;;;;34.67;15.88;;;-7.90;80.20;;;;;;4996702;28;20116;-82
2021/01/16 05:19:29;;;;;;;37.80;17.65;;;-7.80;80.10;;;;;;4995055;28;20034;-82
2021/01/16 05:21:57;;;;;;;34.53;16.00;;;-7.80;80.10;;;;;;4998179;28;20061;-81
2021/01/16 05:24:24;;;;;;;48.92;19.88;;;-7.70;80.10;;;;;;5015823;28;20022;-81
2021/01/16 05:26:50;;;;;;;41.55;18.73;;;-7.80;80.30;;;;;;4997644;28;20026;-82
2021/01/16 05:29:21;;;;;;;44.72;19.30;;;-7.90;79.60;;;;;;5015629;28;20080;-81
2021/01/16 05:31:50;;;;;;;51.67;20.95;;;-7.80;80.60;;;;;;4997408;28;20022;-82
2021/01/16 05:34:16;;;;;;;46.20;18.13;;;-7.90;80.40;;;;;;4995031;28;20022;-81
2021/01/16 05:36:50;;;;;;;50.28;20.00;;;-7.90;80.60;;;;;;4996061;28;20030;-81
2021/01/16 05:39:18;;;;;;;36.30;15.82;;;-7.80;80.50;;;;;;5015729;28;20065;-82
2021/01/16 05:41:45;;;;;;;31.45;13.52;;;-7.80;80.20;;;;;;4996438;28;20125;-81
2021/01/16 05:44:11;;;;;;;30.73;12.85;;;-7.70;80.10;;;;;;4977821;28;20030;-81
2021/01/16 05:46:43;;;;;;;35.85;15.15;;;-7.70;80.00;;;;;;5013116;28;20022;-82
2021/01/16 05:49:14;;;;;;;36.80;16.75;;;-7.60;79.80;;;;;;4995231;28;20030;-81
2021/01/16 05:51:43;;;;;;;47.17;20.17;;;-7.70;79.60;;;;;;4979900;28;20065;-82
2021/01/16 05:54:13;;;;;;;44.28;18.73;;;-7.60;79.60;;;;;;4994227;28;20035;-82
2021/01/16 05:56:41;;;;;;;38.42;17.15;;;-7.60;79.40;;;;;;4979331;28;20066;-82
2021/01/16 05:59:12;;;;;;;46.35;19.42;;;-7.60;79.20;;;;;;5015206;28;20053;-81
2021/01/16 06:01:39;;;;;;;;;;;-7.50;79.20;;;;;;4995521;28;20109;-82
2021/01/16 06:04:06;;;;;;;40.42;17.50;;;-7.50;79.30;;;;;;4994350;28;19913;-85
2021/01/16 06:06:35;;;;;;;49.72;20.65;;;-7.50;79.40;;;;;;4995223;28;20484;-82
2021/01/16 06:09:04;;;;;;;44.08;18.40;;;-7.40;79.30;;;;;;4996338;28;20026;-82
2021/01/16 06:11:37;;;;;;;41.45;18.90;;;-7.50;79.10;;;;;;5015866;28;20034;-82
2021/01/16 06:14:06;;;;;;;44.88;20.33;;;-7.50;79.10;;;;;;4998144;28;20036;-82
2021/01/16 06:16:48;;;;;;;60.20;24.33;;;-7.50;79.00;;;;;;4997997;28;20053;-82
2021/01/16 06:19:19;;;;;;;51.17;21.30;;;-7.50;79.10;;;;;;4998147;28;20045;-83
2021/01/16 06:21:46;;;;;;;43.92;20.10;;;-7.50;79.50;;;;;;5015776;28;20037;-82
2021/01/16 06:24:19;;;;;;;41.28;17.90;;;-7.50;79.50;;;;;;4997156;28;20471;-82
2021/01/16 06:26:57;;;;;;;41.50;19.05;;;-7.50;79.40;;;;;;5015173;28;20033;-83
2021/01/16 06:29:35;;;;;;;38.70;16.95;;;-7.50;79.80;;;;;;4982221;28;20124;-83
2021/01/16 06:32:03;;;;;;;40.05;17.80;;;-7.50;79.70;;;;;;4997799;28;20048;-83
2021/01/16 06:34:32;;;;;;;28.30;13.43;;;-7.50;79.40;;;;;;4997045;28;20034;-82
2021/01/16 06:37:16;;;;;;;45.25;21.35;;;-7.40;79.60;;;;;;4981576;28;20535;-82
2021/01/16 06:39:47;;;;;;;36.95;17.33;;;-7.70;80.40;;;;;;4997193;28;20044;-83
2021/01/16 06:42:19;;;;;;;;;;;-7.90;80.50;;;;;;4998175;28;20033;-83
2021/01/16 06:44:46;;;;;;;35.60;15.80;;;-8.00;80.60;;;;;;4997429;28;20004;-83
2021/01/16 06:47:12;;;;;;;40.55;16.95;;;-8.00;80.70;;;;;;4997725;28;20072;-83
2021/01/16 06:49:39;;;;;;;35.83;17.20;;;-8.40;80.90;;;;;;4997410;28;20066;-82
2021/01/16 06:52:08;;;;;;;43.60;17.38;;;-8.70;80.90;;;;;;5014756;28;20033;-82
2021/01/16 06:54:39;;;;;;;38.38;16.90;;;-8.80;81.20;;;;;;4981211;28;20034;-82
2021/01/16 06:57:07;;;;;;;;;;;-9.00;80.90;;;;;;4997662;28;20030;-82
2021/01/16 06:59:40;;;;;;;33.13;14.70;;;-9.00;82.10;;;;;;4997171;28;19913;-82
2021/01/16 07:02:30;;;;;;;36.60;15.98;;;-9.00;81.90;;;;;;4996548;28;20032;-83
2021/01/16 07:05:03;;;;;;;40.22;17.95;;;-9.00;81.70;;;;;;5014777;28;20105;-83
2021/01/16 07:07:45;;;;;;;38.10;16.45;;;-9.10;81.50;;;;;;4997219;28;20026;-83
2021/01/16 07:10:15;;;;;;;36.83;16.20;;;-9.30;81.10;;;;;;4996425;28;20488;-83
2021/01/16 07:12:46;;;;;;;38.08;16.88;;;-9.50;81.00;;;;;;4996224;28;20104;-82
2021/01/16 07:15:12;;;;;;;;;;;-9.40;81.30;;;;;;4980525;28;20431;-83
2021/01/16 07:17:40;;;;;;;34.67;16.45;;;-9.40;81.20;;;;;;4995429;28;19997;-83
2021/01/16 07:20:08;;;;;;;43.20;18.98;;;-9.40;81.30;;;;;;5013356;28;20033;-83
2021/01/16 07:22:41;;;;;;;39.22;16.25;;;-9.60;80.70;;;;;;4996009;28;20034;-83
2021/01/16 07:25:10;;;;;;;28.70;14.75;;;-9.60;80.90;;;;;;5013719;28;20025;-83
2021/01/16 07:27:40;;;;;;;38.80;16.70;;;-9.80;81.90;;;;;;4981042;28;20103;-83
2021/01/16 07:30:13;;;;;;;35.30;14.55;;;-9.80;81.70;;;;;;5013537;28;20038;-83
2021/01/16 07:32:42;;;;;;;32.58;15.65;;;-9.80;81.20;;;;;;4980452;28;20037;-83
2021/01/16 07:35:12;;;;;;;37.55;18.15;;;-9.80;81.20;;;;;;4996194;28;20498;-82
2021/01/16 07:37:45;;;;;;;40.25;19.02;;;-9.80;79.70;;;;;;4995756;28;20026;-83
2021/01/16 07:40:23;;;;;;;35.30;15.55;;;-10.00;80.80;;;;;;4995524;28;20030;-83
2021/01/16 07:42:54;;;;;;;46.50;19.02;;;-9.90;80.60;;;;;;4996016;28;20416;-83
2021/01/16 07:45:39;;;;;;;35.22;15.60;;;-10.00;79.80;;;;;;5013464;28;20053;-82
2021/01/16 07:48:06;;;;;;;35.20;15.02;;;-10.00;79.90;;;;;;4964681;28;20054;-83
2021/01/16 07:50:34;;;;;;;32.13;14.63;;;-10.10;80.20;;;;;;4995411;28;20092;-83
2021/01/16 07:53:04;;;;;;;27.85;12.13;;;-10.00;79.60;;;;;;4995389;28;20030;-83
2021/01/16 07:55:38;;;;;;;35.72;15.48;;;-9.90;80.00;;;;;;5013117;28;20060;-83
2021/01/16 07:58:43;;;;;;;47.95;17.50;;;-10.00;78.00;;;;;;4995821;28;20034;-83
2021/01/16 08:01:39;;;;;;;41.10;14.48;;;-10.10;78.30;;;;;;5013092;28;20026;-82
2021/01/16 08:04:32;;;;;;;42.13;16.40;;;-10.10;78.50;;;;;;4978813;28;20033;-82
2021/01/16 08:07:06;;;;;;;43.15;14.80;;;-10.10;78.90;;;;;;4994885;28;20017;-82
2021/01/16 08:09:57;;;;;;;36.53;14.73;;;-10.10;78.90;;;;;;5012501;28;20042;-83
2021/01/16 08:12:27;;;;;;;43.97;15.75;;;-10.20;79.10;;;;;;4996131;28;20091;-82
2021/01/16 08:15:01;;;;;;;33.47;15.75;;;-10.30;79.20;;;;;;4995924;28;20030;-83
2021/01/16 08:17:46;;;;;;;26.95;12.82;;;-10.30;79.50;;;;;;4996048;28;20049;-82
2021/01/16 08:20:20;;;;;;;39.90;17.63;;;-10.10;79.60;;;;;;4995180;28;20113;-83
2021/01/16 08:22:51;;;;;;;30.13;13.15;;;-10.20;79.70;;;;;;4979689;28;20030;-83
2021/01/16 08:25:26;;;;;;;35.63;15.18;;;-9.60;79.50;;;;;;4980407;28;20510;-82
2021/01/16 08:27:56;;;;;;;42.65;18.17;;;-10.10;79.60;;;;;;4964010;28;20051;-83
2021/01/16 08:30:24;;;;;;;52.45;19.98;;;-10.10;79.50;;;;;;4980013;28;20125;-82
2021/01/16 08:33:07;;;;;;;52.45;20.15;;;-10.10;78.50;;;;;;4995770;28;20066;-84
2021/01/16 08:35:39;;;;;;;42.88;17.27;;;-10.10;79.10;;;;;;5013737;28;20034;-82
2021/01/16 08:38:23;;;;;;;29.92;13.25;;;-10.10;78.80;;;;;;4996200;28;20029;-82
2021/01/16 08:41:08;;;;;;;53.80;22.35;;;-10.10;79.50;;;;;;4995877;28;20025;-82
2021/01/16 08:43:55;;;;;;;40.17;18.00;;;-10.00;78.90;;;;;;4996261;28;20090;-82
2021/01/16 08:46:34;;;;;;;36.40;16.65;;;-9.80;79.10;;;;;;4996111;28;20468;-82
2021/01/16 08:49:17;;;;;;;34.72;15.32;;;-9.70;78.40;;;;;;4995680;28;20022;-83
2021/01/16 08:51:52;;;;;;;29.65;13.02;;;-9.80;77.20;;;;;;4995403;28;20026;-83
2021/01/16 08:54:21;;;;;;;31.52;14.60;;;-9.70;77.40;;;;;;4994799;28;20022;-83
2021/01/16 08:56:49;;;;;;;43.58;16.27;;;-9.90;75.40;;;;;;4993905;28;20022;-83
2021/01/16 08:59:16;;;;;;;29.85;12.10;;;-8.50;76.90;;;;;;4994030;28;20048;-84
2021/01/16 09:01:54;;;;;;;31.17;14.48;;;-9.80;76.90;;;;;;4993862;28;20026;-83
2021/01/16 09:04:23;;;;;;;32.30;14.50;;;-9.80;75.90;;;;;;5009437;28;20038;-82
2021/01/16 09:07:08;;;;;;;31.35;13.40;;;-10.00;76.10;;;;;;5009645;28;20026;-83
2021/01/16 09:09:34;;;;;;;34.83;15.02;;;-10.20;75.50;;;;;;4992100;28;20049;-82
2021/01/16 09:12:12;;;;;;;39.88;21.10;;;-8.80;77.30;;;;;;4993054;28;20034;-82
2021/01/16 09:14:40;;;;;;;35.67;15.55;;;-10.30;77.00;;;;;;4975434;28;20030;-83
2021/01/16 09:17:23;;;;;;;37.88;17.23;;;-10.20;77.90;;;;;;4992383;28;20029;-83
2021/01/16 09:19:59;;;;;;;44.70;17.77;;;-10.20;77.60;;;;;;4976425;28;20045;-82
2021/01/16 09:22:33;;;;;;;43.60;18.02;;;-10.20;78.70;;;;;;4996887;28;20050;-84
2021/01/16 09:25:27;;;;;;;37.15;16.65;;;-10.10;78.00;;;;;;4996850;28;20076;-83
2021/01/16 09:27:54;;;;;;;38.95;17.60;;;-10.20;77.60;;;;;;4994055;28;20538;-83
2021/01/16 09:30:25;;;;;;;37.45;16.48;;;-10.30;77.30;;;;;;4980310;28;20030;-84
2021/01/16 09:32:52;;;;;;;;;;;-9.40;78.60;;;;;;4994204;28;20531;-83
2021/01/16 09:35:38;;;;;;;69.60;24.48;;;-10.20;77.90;;;;;;5014147;28;19905;-81
2021/01/16 09:38:21;;;;;;;45.33;19.05;;;-10.20;78.30;;;;;;5015462;28;20160;-83
2021/01/16 09:40:50;;;;;;;42.40;19.30;;;-10.30;78.10;;;;;;4981500;28;20030;-83
2021/01/16 09:43:21;;;;;;;46.20;22.38;;;-10.20;78.70;;;;;;4981814;28;20026;-83
2021/01/16 09:46:01;;;;;;;61.72;27.27;;;-9.30;78.20;;;;;;4997546;28;20022;-84
2021/01/16 09:48:31;;;;;;;65.50;23.65;;;-10.00;77.10;;;;;;4998481;28;20026;-83
2021/01/16 09:50:59;;;;;;;30.58;15.70;;;-9.80;78.10;;;;;;5015138;28;20026;-84
2021/01/16 09:53:26;;;;;;;33.60;16.30;;;-9.60;78.20;;;;;;4997463;28;20030;-83
2021/01/16 09:55:54;;;;;;;41.33;17.85;;;-9.40;77.40;;;;;;4981161;28;20112;-83
2021/01/16 09:58:30;;;;;;;33.97;14.02;;;-9.50;75.20;;;;;;4997520;28;20033;-83
2021/01/16 10:01:18;;;;;;;30.17;13.45;;;-9.30;76.50;;;;;;4993509;28;20060;-83
2021/01/16 10:03:46;;;;;;;35.70;15.57;;;-9.20;74.60;;;;;;4997697;28;20029;-83
2021/01/16 10:06:17;;;;;;;25.67;11.88;;;-9.00;75.20;;;;;;4981505;28;20034;-83
2021/01/16 10:08:42;;;;;;;;;;;-9.00;72.40;;;;;;4998086;28;20077;-83
2021/01/16 10:11:10;;;;;;;28.50;13.48;;;-8.90;70.80;;;;;;5030342;28;19924;-83
2021/01/16 10:13:38;;;;;;;37.65;16.95;;;-9.00;70.50;;;;;;5015937;28;20084;-83
2021/01/16 10:16:10;;;;;;;54.78;24.55;;;-8.90;69.70;;;;;;4982100;28;20121;-84
2021/01/16 10:18:37;;;;;;;41.30;18.83;;;-9.10;69.00;;;;;;4998039;28;20026;-82
2021/01/16 10:21:22;;;;;;;35.95;14.40;;;-9.10;68.70;;;;;;4997631;28;20037;-83
2021/01/16 10:23:51;;;;;;;22.40;10.52;;;-9.10;67.70;;;;;;4998385;28;20117;-83
2021/01/16 10:26:17;;;;;;;25.88;10.77;;;-8.90;68.40;;;;;;4982184;28;20417;-83
2021/01/16 10:28:46;;;;;;;23.83;10.45;;;-9.00;67.80;;;;;;4998134;28;20085;-83
2021/01/16 10:31:13;;;;;;;23.52;10.40;;;-7.80;68.10;;;;;;4997723;28;20025;-83
2021/01/16 10:33:46;;;;;;;24.58;11.98;;;-9.10;66.10;;;;;;4997599;28;20030;-83
2021/01/16 10:36:13;;;;;;;23.95;10.63;;;-9.20;65.50;;;;;;4993413;28;20022;-83
2021/01/16 10:38:48;;;;;;;26.25;11.80;;;-9.20;66.90;;;;;;5015099;28;20037;-83
2021/01/16 10:41:20;;;;;;;36.67;15.73;;;-9.10;67.00;;;;;;4982109;28;20041;-83
2021/01/16 10:43:46;;;;;;;21.40;11.10;;;-9.00;66.50;;;;;;5015431;28;20033;-83
2021/01/16 10:46:15;;;;;;;26.85;10.30;;;-8.90;65.50;;;;;;4997919;28;20109;-83
2021/01/16 10:48:42;;;;;;;28.42;11.55;;;-8.10;65.30;;;;;;5015046;28;20030;-82
2021/01/16 10:51:10;;;;;;;33.38;13.15;;;-9.00;64.60;;;;;;4997424;28;20022;-83
2021/01/16 10:53:40;;;;;;;22.58;11.07;;;-8.50;63.70;;;;;;4997333;28;20503;-83
2021/01/16 10:56:24;;;;;;;27.85;11.10;;;-9.00;63.40;;;;;;4965861;28;20077;-83
2021/01/16 10:59:07;;;;;;;23.95;10.10;;;-8.90;64.30;;;;;;4997566;28;20029;-81
2021/01/16 11:02:09;;;;;;;20.75;10.82;;;-9.10;61.70;;;;;;5014966;28;20049;-81
2021/01/16 11:04:40;;;;;;;21.27;9.77;;;-9.20;60.80;;;;;;4997699;28;20428;-80
2021/01/16 11:07:09;;;;;;;21.42;10.05;;;-9.50;60.90;;;;;;4997524;28;20018;-81
2021/01/16 11:09:44;;;;;;;31.88;14.57;;;-9.40;62.00;;;;;;4979696;28;20472;-84
2021/01/16 11:12:11;;;;;;;19.27;9.60;;;-9.60;61.80;;;;;;4993251;28;20034;-86
2021/01/16 11:14:43;;;;;;;24.38;11.52;;;-9.60;63.40;;;;;;4995357;28;20032;-86
2021/01/16 11:17:10;;;;;;;26.33;10.75;;;-9.60;63.40;;;;;;5010594;28;20022;-86
2021/01/16 11:19:43;;;;;;;20.38;8.55;;;-8.80;61.50;;;;;;4977924;28;20026;-87
2021/01/16 11:22:11;;;;;;;23.70;9.77;;;-9.60;61.70;;;;;;4993055;28;20141;-86
2021/01/16 11:24:55;;;;;;;23.75;10.30;;;-9.70;60.50;;;;;;5013116;28;20054;-86
2021/01/16 11:27:27;;;;;;;17.83;8.95;;;-9.70;62.20;;;;;;4994526;28;20022;-86
2021/01/16 11:30:16;;;;;;;20.73;8.88;;;-8.80;62.50;;;;;;4994248;28;20468;-85
2021/01/16 11:32:42;;;;;;;27.50;9.55;;;-8.90;62.10;;;;;;4996780;28;20038;-86
2021/01/16 11:35:10;;;;;;;27.20;11.35;;;;;;;;;;4996742;28;20411;-86
2021/01/16 11:37:49;;;;;;;30.52;13.65;;;-9.90;60.80;;;;;;4996737;28;20112;-86
2021/01/16 11:40:33;;;;;;;23.75;10.63;;;-10.10;60.90;;;;;;5014377;28;20030;-84
2021/01/16 11:43:09;;;;;;;29.40;10.25;;;-10.10;60.50;;;;;;4991841;28;20037;-87
2021/01/16 11:45:36;;;;;;;33.30;14.13;;;-10.10;61.70;;;;;;4964018;28;20508;-87
2021/01/16 11:48:04;;;;;;;30.90;11.40;;;-10.30;62.10;;;;;;4995101;28;20032;-87
2021/01/16 11:50:35;;;;;;;33.83;12.25;;;-11.20;61.70;;;;;;4995000;28;20030;-86
2021/01/16 11:53:07;;;;;;;32.30;13.02;;;-10.00;62.90;;;;;;4992320;28;20026;-87
2021/01/16 11:55:33;;;;;;;31.90;12.77;;;-10.00;61.90;;;;;;4994627;28;20056;-87
2021/01/16 11:58:02;;;;;;;27.17;11.90;;;-5.40;65.20;;;;;;4977799;28;20026;-87
2021/01/16 12:00:29;;;;;;;26.88;12.00;;;-10.10;63.50;;;;;;4994324;28;20029;-87
2021/01/16 12:02:57;;;;;;;50.08;19.35;;;-10.10;62.50;;;;;;4978234;28;20061;-87
2021/01/16 12:05:25;;;;;;;31.00;13.48;;;-10.10;62.00;;;;;;5011389;28;20396;-87
2021/01/16 12:07:56;;;;;;;24.00;10.57;;;-10.10;64.00;;;;;;4993830;28;20357;-87
2021/01/16 12:10:23;;;;;;;;;;;-8.80;64.30;;;;;;4993179;28;20042;-86
2021/01/16 12:12:50;;;;;;;29.83;11.32;;;;;;;;;;4979614;28;19922;-86
2021/01/16 12:15:26;;;;;;;25.67;11.18;;;-10.10;61.70;;;;;;4996251;28;20129;-87
2021/01/16 12:17:54;;;;;;;24.40;9.60;;;-10.10;62.00;;;;;;4979177;28;20046;-87
2021/01/16 12:20:25;;;;;;;20.77;9.70;;;-10.20;62.10;;;;;;5010628;28;20173;-87
2021/01/16 12:22:57;;;;;;;25.75;10.57;;;-9.90;62.70;;;;;;4979497;28;20626;-87
2021/01/16 12:25:34;;;;;;;23.70;10.52;;;-9.60;61.90;;;;;;4993396;28;20029;-87
2021/01/16 12:28:03;;;;;;;29.45;10.85;;;-10.10;61.70;;;;;;4993052;28;20102;-88
2021/01/16 12:30:37;;;;;;;22.50;9.20;;;-10.50;60.50;;;;;;4998070;28;20375;-87
2021/01/16 12:33:03;;;;;;;20.92;9.32;;;-10.70;60.70;;;;;;4995814;28;20436;-85
2021/01/16 12:35:31;;;;;;;22.27;9.68;;;-10.70;60.70;;;;;;4995080;28;20018;-85
2021/01/16 12:37:57;;;;;;;21.75;9.27;;;-10.70;61.40;;;;;;4995298;28;20076;-85
2021/01/16 12:40:27;;;;;;;25.98;10.50;;;-11.00;61.30;;;;;;4995041;28;20479;-85
2021/01/16 12:42:53;;;;;;;28.38;9.93;;;-13.70;60.40;;;;;;4979428;28;20030;-86
2021/01/16 12:45:21;;;;;;;26.48;10.15;;;-11.10;62.40;;;;;;4992944;28;20539;-85